createdAt,value
2017-06-08T00:01:00.284Z,85.60
2017-06-08T00:03:26.540Z,85.50
2017-06-08T00:05:52.817Z,85.20
2017-06-08T00:08:19.108Z,85.30
2017-06-08T00:10:45.365Z,85.50
2017-06-08T00:13:12.038Z,85.80
2017-06-08T00:15:38.789Z,85.10
2017-06-08T00:18:05.054Z,85.70
2017-06-08T00:20:32.084Z,85.80
2017-06-08T00:22:58.336Z,85.40
2017-06-08T00:25:25.035Z,85.90
2017-06-08T00:27:51.272Z,86.10
2017-06-08T00:30:17.533Z,85.50
2017-06-08T00:32:44.557Z,86.50
2017-06-08T00:35:10.812Z,85.90
2017-06-08T00:37:37.516Z,86.00
2017-06-08T00:40:03.844Z,86.10
2017-06-08T00:42:30.115Z,85.60
2017-06-08T00:44:56.407Z,86.40
2017-06-08T00:47:22.668Z,85.60
2017-06-08T00:49:49.376Z,86.00
2017-06-08T00:52:15.652Z,86.00
2017-06-08T00:54:41.905Z,85.90
2017-06-08T00:57:08.191Z,85.80
2017-06-08T00:59:34.463Z,86.00
2017-06-08T01:02:01.117Z,85.80
2017-06-08T01:04:27.344Z,85.30
2017-06-08T01:06:53.589Z,86.30
2017-06-08T01:09:19.893Z,86.60
2017-06-08T01:11:46.132Z,86.40
2017-06-08T01:14:12.825Z,86.70
2017-06-08T01:16:39.076Z,87.40
2017-06-08T01:19:06.053Z,86.70
2017-06-08T01:21:32.301Z,86.60
2017-06-08T01:23:58.541Z,86.40
2017-06-08T01:26:25.240Z,86.50
2017-06-08T01:28:51.475Z,86.30
2017-06-08T01:31:17.802Z,86.20
2017-06-08T01:33:44.108Z,86.30
2017-06-08T01:36:10.484Z,87.20
2017-06-08T01:38:36.786Z,86.20
2017-06-08T01:41:03.454Z,86.50
2017-06-08T01:43:29.755Z,86.70
2017-06-08T01:45:56.130Z,86.80
2017-06-08T01:48:23.145Z,86.70
2017-06-08T01:50:49.413Z,86.40
2017-06-08T01:53:15.668Z,86.60
2017-06-08T01:55:42.708Z,86.80
2017-06-08T01:58:09.723Z,86.90
2017-06-08T02:00:36.361Z,86.70
2017-06-08T02:03:02.636Z,86.90
2017-06-08T02:05:28.874Z,87.10
2017-06-08T02:07:57.578Z,86.90
2017-06-08T02:10:23.834Z,86.80
2017-06-08T02:12:50.567Z,87.20
2017-06-08T02:15:16.863Z,86.90
2017-06-08T02:17:43.856Z,86.90
2017-06-08T02:20:10.132Z,86.70
2017-06-08T02:22:37.144Z,87.90
2017-06-08T02:25:03.849Z,87.80
2017-06-08T02:27:30.132Z,87.40
2017-06-08T02:29:56.393Z,87.20
2017-06-08T02:32:23.437Z,87.70
2017-06-08T02:34:49.704Z,87.50
2017-06-08T02:37:17.148Z,87.70
2017-06-08T02:39:44.033Z,87.60
2017-06-08T02:42:11.037Z,88.20
2017-06-08T02:44:37.365Z,88.20
2017-06-08T02:47:03.641Z,88.30
2017-06-08T02:49:30.866Z,88.10
2017-06-08T02:51:57.140Z,88.20
2017-06-08T02:54:23.996Z,88.80
2017-06-08T02:56:50.300Z,88.60
2017-06-08T02:59:17.282Z,88.30
2017-06-08T03:01:43.948Z,88.50
2017-06-08T03:04:10.216Z,88.70
2017-06-08T03:06:37.236Z,88.80
2017-06-08T03:09:03.942Z,88.70
2017-06-08T03:11:30.206Z,87.90
2017-06-08T03:13:56.449Z,88.30
2017-06-08T03:16:22.928Z,89.30
2017-06-08T03:18:49.195Z,89.10
2017-06-08T03:21:15.468Z,89.40
2017-06-08T03:23:42.727Z,89.00
2017-06-08T03:26:08.991Z,89.10
2017-06-08T03:28:35.404Z,89.30
2017-06-08T03:31:02.049Z,88.80
2017-06-08T03:33:28.360Z,88.60
2017-06-08T03:35:54.631Z,88.40
2017-06-08T03:38:21.852Z,88.80
2017-06-08T03:40:48.157Z,88.60
2017-06-08T03:43:14.434Z,88.60
2017-06-08T03:45:41.649Z,88.10
2017-06-08T03:48:07.916Z,88.10
2017-06-08T03:50:34.944Z,87.10
2017-06-08T03:53:01.673Z,87.00
2017-06-08T03:55:27.928Z,87.60
2017-06-08T03:57:54.984Z,88.70
2017-06-08T04:00:21.465Z,88.50
2017-06-08T04:02:47.720Z,88.30
2017-06-08T04:05:14.753Z,86.70
2017-06-08T04:07:41.321Z,86.60
2017-06-08T04:10:08.360Z,86.80
2017-06-08T04:12:35.347Z,86.70
2017-06-08T04:15:01.797Z,86.60
2017-06-08T04:17:28.073Z,86.30
2017-06-08T04:19:54.394Z,86.20
2017-06-08T04:22:20.793Z,85.90
2017-06-08T04:24:47.080Z,85.60
2017-06-08T04:27:13.336Z,85.30
2017-06-08T04:29:40.254Z,85.10
2017-06-08T04:32:06.596Z,85.10
2017-06-08T04:34:32.911Z,85.00
2017-06-08T04:36:59.556Z,84.80
2017-06-08T04:39:25.827Z,84.60
2017-06-08T04:41:52.065Z,85.10
2017-06-08T04:44:18.543Z,84.50
2017-06-08T04:46:45.331Z,83.70
2017-06-08T04:49:12.353Z,84.40
2017-06-08T04:51:38.757Z,84.40
2017-06-08T04:54:05.053Z,84.00
2017-06-08T04:56:31.961Z,84.30
2017-06-08T04:58:58.367Z,83.90
2017-06-08T05:01:24.660Z,82.60
2017-06-08T05:03:50.966Z,82.10
2017-06-08T05:06:18.139Z,81.40
2017-06-08T05:08:44.396Z,82.00
2017-06-08T05:11:10.714Z,81.70
2017-06-08T05:13:37.460Z,81.70
2017-06-08T05:16:03.781Z,81.40
2017-06-08T05:18:30.075Z,81.10
2017-06-08T05:20:56.733Z,80.70
2017-06-08T05:23:23.028Z,80.50
2017-06-08T05:25:49.312Z,79.70
2017-06-08T05:28:15.930Z,80.00
2017-06-08T05:30:42.259Z,80.00
2017-06-08T05:33:08.540Z,80.40
2017-06-08T05:35:35.954Z,79.20
2017-06-08T05:38:02.244Z,79.20
2017-06-08T05:40:28.518Z,79.60
2017-06-08T05:42:55.145Z,79.80
2017-06-08T05:45:21.408Z,79.10
2017-06-08T05:47:48.412Z,79.40
2017-06-08T05:50:14.836Z,79.40
2017-06-08T05:52:41.143Z,80.30
2017-06-08T05:55:07.392Z,79.80
2017-06-08T05:57:33.827Z,79.60
2017-06-08T06:00:00.122Z,78.70
2017-06-08T06:02:26.388Z,79.00
2017-06-08T06:04:54.367Z,79.10
2017-06-08T06:07:21.384Z,78.30
2017-06-08T06:09:47.710Z,78.30
2017-06-08T06:12:14.151Z,76.60
2017-06-08T06:14:40.405Z,75.50
2017-06-08T06:17:06.664Z,76.60
2017-06-08T06:19:33.104Z,76.60
2017-06-08T06:21:59.381Z,74.80
2017-06-08T06:24:25.649Z,76.30
2017-06-08T06:26:52.297Z,75.40
2017-06-08T06:29:18.615Z,76.10
2017-06-08T06:31:44.924Z,75.20
2017-06-08T06:34:12.136Z,76.80
2017-06-08T06:36:38.424Z,76.80
2017-06-08T06:39:04.704Z,75.80
2017-06-08T06:41:31.323Z,76.90
2017-06-08T06:43:57.636Z,76.00
2017-06-08T06:46:23.965Z,76.00
2017-06-08T06:48:50.352Z,76.20
2017-06-08T06:51:17.344Z,75.20
2017-06-08T06:53:43.600Z,75.20
2017-06-08T06:56:11.009Z,73.20
2017-06-08T06:58:37.880Z,72.90
2017-06-08T07:01:04.173Z,73.50
2017-06-08T07:03:30.624Z,74.30
2017-06-08T07:05:56.909Z,74.40
2017-06-08T07:08:23.273Z,74.00
2017-06-08T07:10:49.885Z,74.70
2017-06-08T07:13:16.211Z,73.50
2017-06-08T07:15:42.481Z,74.00
2017-06-08T07:18:09.303Z,73.30
2017-06-08T07:20:36.567Z,73.60
2017-06-08T07:23:02.856Z,74.10
2017-06-08T07:25:29.307Z,74.20
2017-06-08T07:27:55.603Z,73.70
2017-06-08T07:30:21.894Z,74.90
2017-06-08T07:32:48.623Z,76.80
2017-06-08T07:35:14.888Z,75.40
2017-06-08T07:37:41.173Z,75.30
2017-06-08T07:40:07.693Z,75.80
2017-06-08T07:42:33.953Z,77.00
2017-06-08T07:45:00.973Z,74.70
2017-06-08T07:47:27.384Z,74.70
2017-06-08T07:49:53.659Z,73.80
2017-06-08T07:52:20.672Z,75.20
2017-06-08T07:54:47.088Z,75.10
2017-06-08T07:57:13.343Z,75.20
2017-06-08T07:59:39.589Z,74.80
2017-06-08T08:02:29.041Z,75.10
2017-06-08T08:04:55.277Z,73.30
2017-06-08T08:07:21.574Z,73.60
2017-06-08T08:09:48.007Z,74.50
2017-06-08T08:12:14.269Z,73.00
2017-06-08T08:14:41.268Z,73.10
2017-06-08T08:17:07.656Z,72.90
2017-06-08T08:19:33.946Z,73.10
2017-06-08T08:22:00.243Z,72.20
2017-06-08T08:24:26.656Z,72.00
2017-06-08T08:26:52.952Z,71.10
2017-06-08T08:29:19.958Z,71.00
2017-06-08T08:31:46.596Z,70.30
2017-06-08T08:34:12.876Z,70.50
2017-06-08T08:36:39.931Z,70.30
2017-06-08T08:39:06.411Z,70.20
2017-06-08T08:41:32.736Z,70.90
2017-06-08T08:43:59.020Z,70.90
2017-06-08T08:46:25.688Z,71.10
2017-06-08T08:48:51.964Z,71.40
2017-06-08T08:51:18.977Z,72.40
2017-06-08T08:53:45.581Z,72.20
2017-06-08T08:56:11.880Z,71.40
2017-06-08T08:58:38.171Z,72.10
2017-06-08T09:01:04.883Z,70.50
2017-06-08T09:03:31.132Z,70.60
2017-06-08T09:05:57.416Z,70.20
2017-06-08T09:08:24.086Z,70.00
2017-06-08T09:10:50.404Z,69.60
2017-06-08T09:13:16.676Z,70.00
2017-06-08T09:15:43.371Z,71.40
2017-06-08T09:18:09.673Z,70.60
2017-06-08T09:20:35.971Z,69.40
2017-06-08T09:23:03.365Z,68.20
2017-06-08T09:25:29.654Z,68.10
2017-06-08T09:27:55.956Z,69.60
2017-06-08T09:30:22.675Z,67.50
2017-06-08T09:32:49.027Z,69.20
2017-06-08T09:35:15.315Z,69.20
2017-06-08T09:37:42.071Z,67.40
2017-06-08T09:40:08.362Z,68.20
2017-06-08T09:42:34.645Z,67.90
2017-06-08T09:45:02.067Z,69.30
2017-06-08T09:47:28.361Z,69.30
2017-06-08T09:49:54.644Z,69.30
2017-06-08T09:52:21.344Z,68.50
2017-06-08T09:54:47.632Z,69.50
2017-06-08T09:57:13.909Z,69.80
2017-06-08T09:59:40.755Z,67.00
2017-06-08T10:02:07.097Z,67.70
2017-06-08T10:04:33.405Z,68.00
2017-06-08T10:07:00.159Z,67.80
2017-06-08T10:09:26.582Z,68.40
2017-06-08T10:11:52.833Z,66.90
2017-06-08T10:14:19.444Z,68.20
2017-06-08T10:16:45.728Z,69.20
2017-06-08T10:19:11.998Z,66.70
2017-06-08T10:21:38.931Z,65.90
2017-06-08T10:24:05.208Z,67.20
2017-06-08T10:26:32.845Z,67.10
2017-06-08T10:28:59.580Z,67.10
2017-06-08T10:31:25.904Z,66.60
2017-06-08T10:33:52.192Z,67.30
2017-06-08T10:36:18.959Z,68.20
2017-06-08T10:38:45.238Z,63.70
2017-06-08T10:41:11.533Z,66.90
2017-06-08T10:43:38.240Z,68.10
2017-06-08T10:46:04.513Z,65.80
2017-06-08T10:48:31.570Z,67.20
2017-06-08T10:50:58.772Z,67.10
2017-06-08T10:53:25.055Z,67.90
2017-06-08T10:55:51.452Z,67.10
2017-06-08T10:58:18.884Z,66.60
2017-06-08T11:00:45.176Z,66.40
2017-06-08T11:03:11.441Z,66.70
2017-06-08T11:05:38.072Z,64.60
2017-06-08T11:08:04.327Z,65.00
2017-06-08T11:10:31.368Z,68.10
2017-06-08T11:12:58.776Z,65.60
2017-06-08T11:15:26.519Z,64.20
2017-06-08T11:17:53.524Z,66.10
2017-06-08T11:20:20.966Z,64.10
2017-06-08T11:22:47.212Z,64.00
2017-06-08T11:25:14.645Z,62.80
2017-06-08T11:27:41.331Z,62.70
2017-06-08T11:30:07.699Z,62.60
2017-06-08T11:32:33.997Z,62.80
2017-06-08T11:35:00.673Z,63.00
2017-06-08T11:37:26.949Z,64.50
2017-06-08T11:39:53.251Z,62.20
2017-06-08T11:42:20.772Z,61.00
2017-06-08T11:44:47.646Z,60.80
2017-06-08T11:47:13.897Z,62.00
2017-06-08T11:49:40.576Z,63.10
2017-06-08T11:52:06.872Z,63.50
2017-06-08T11:54:33.157Z,64.00
2017-06-08T11:56:59.970Z,65.50
2017-06-08T11:59:26.257Z,63.70
2017-06-08T12:01:52.530Z,63.50
2017-06-08T12:04:19.270Z,63.30
2017-06-08T12:06:45.531Z,61.00
2017-06-08T12:09:11.848Z,62.00
2017-06-08T12:11:38.420Z,61.70
2017-06-08T12:14:04.712Z,62.50
2017-06-08T12:16:31.731Z,62.40
2017-06-08T12:18:58.468Z,62.60
2017-06-08T12:21:25.627Z,61.20
2017-06-08T12:23:51.941Z,62.50
2017-06-08T12:26:18.677Z,63.80
2017-06-08T12:28:44.952Z,64.30
2017-06-08T12:31:11.639Z,63.80
2017-06-08T12:33:38.965Z,65.30
2017-06-08T12:36:05.256Z,64.20
2017-06-08T12:38:32.276Z,67.10
2017-06-08T12:40:59.000Z,66.20
2017-06-08T12:43:25.296Z,66.20
2017-06-08T12:45:51.570Z,66.70
2017-06-08T12:48:19.011Z,67.20
2017-06-08T12:50:45.339Z,67.00
2017-06-08T12:53:11.606Z,66.30
2017-06-08T12:55:38.308Z,67.90
2017-06-08T12:58:04.607Z,68.30
2017-06-08T13:00:30.843Z,66.80
2017-06-08T13:02:57.573Z,68.80
2017-06-08T13:05:23.916Z,69.00
2017-06-08T13:07:50.244Z,69.70
2017-06-08T13:10:16.872Z,70.50
2017-06-08T13:12:43.129Z,70.80
2017-06-08T13:15:09.405Z,71.30
2017-06-08T13:17:36.087Z,71.90
2017-06-08T13:20:02.368Z,71.10
2017-06-08T13:22:28.729Z,71.30
2017-06-08T13:24:55.433Z,71.60
2017-06-08T13:27:21.721Z,71.40
2017-06-08T13:29:47.991Z,71.80
2017-06-08T13:32:14.657Z,72.50
2017-06-08T13:34:40.954Z,72.20
2017-06-08T13:37:07.196Z,71.40
2017-06-08T13:39:33.846Z,71.10
2017-06-08T13:42:00.131Z,72.10
2017-06-08T13:44:27.070Z,72.90
2017-06-08T13:46:53.727Z,72.20
2017-06-08T13:49:19.980Z,71.60
2017-06-08T13:51:46.276Z,72.10
2017-06-08T13:54:12.962Z,72.00
2017-06-08T13:56:40.030Z,74.40
2017-06-08T13:59:06.512Z,74.30
2017-06-08T14:01:33.147Z,74.40
2017-06-08T14:03:59.504Z,73.90
2017-06-08T14:06:25.777Z,73.80
2017-06-08T14:08:52.364Z,73.70
2017-06-08T14:11:18.628Z,72.50
2017-06-08T14:13:45.712Z,72.60
2017-06-08T14:16:12.364Z,72.50
2017-06-08T14:18:38.632Z,71.80
2017-06-08T14:21:04.893Z,73.80
2017-06-08T14:23:31.616Z,73.80
2017-06-08T14:25:57.892Z,72.70
2017-06-08T14:28:24.194Z,73.60
2017-06-08T14:30:50.807Z,73.10
2017-06-08T14:33:17.045Z,72.90
2017-06-08T14:35:43.327Z,72.00
2017-06-08T14:38:10.844Z,72.30
2017-06-08T14:40:37.140Z,72.70
2017-06-08T14:43:03.416Z,74.20
2017-06-08T14:45:30.016Z,76.10
2017-06-08T14:47:56.284Z,76.70
2017-06-08T14:50:22.563Z,77.60
2017-06-08T14:52:49.213Z,76.30
2017-06-08T14:55:15.463Z,75.80
2017-06-08T14:57:41.772Z,75.90
2017-06-08T15:00:08.388Z,76.60
2017-06-08T15:02:34.659Z,76.60
2017-06-08T15:05:00.949Z,77.50
2017-06-08T15:07:27.694Z,76.90
2017-06-08T15:09:53.954Z,75.80
2017-06-08T15:12:20.184Z,74.40
2017-06-08T15:14:46.784Z,75.00
2017-06-08T15:17:13.046Z,74.10
2017-06-08T15:19:40.081Z,75.10
2017-06-08T15:22:08.007Z,74.50
2017-06-08T15:24:34.301Z,74.10
2017-06-08T15:27:00.605Z,74.40
2017-06-08T15:29:27.246Z,73.50
2017-06-08T15:31:53.524Z,73.20
2017-06-08T15:34:19.815Z,72.80
2017-06-08T15:36:46.483Z,73.80
2017-06-08T15:39:12.744Z,71.80
2017-06-08T15:41:39.020Z,72.80
2017-06-08T15:44:05.794Z,73.00
2017-06-08T15:46:32.073Z,72.00
2017-06-08T15:48:59.071Z,71.70
2017-06-08T15:51:25.816Z,70.80
2017-06-08T15:53:52.100Z,71.40
2017-06-08T15:56:18.356Z,71.60
2017-06-08T15:58:44.987Z,72.40
2017-06-08T16:01:11.246Z,71.20
2017-06-08T16:03:37.515Z,71.70
2017-06-08T16:06:04.189Z,72.40
2017-06-08T16:08:30.515Z,72.50
2017-06-08T16:10:56.784Z,71.10
2017-06-08T16:13:23.661Z,72.00
2017-06-08T16:15:49.931Z,70.80
2017-06-08T16:18:16.249Z,70.90
2017-06-08T16:20:43.679Z,71.10
2017-06-08T16:23:09.957Z,71.00
2017-06-08T16:25:37.059Z,72.40
2017-06-08T16:28:03.788Z,72.40
2017-06-08T16:30:30.052Z,72.80
2017-06-08T16:32:56.333Z,73.00
2017-06-08T16:35:22.996Z,73.40
2017-06-08T16:37:49.277Z,74.80
2017-06-08T16:40:15.545Z,74.40
2017-06-08T16:42:42.196Z,74.80
2017-06-08T16:45:08.465Z,75.00
2017-06-08T16:47:34.825Z,75.30
2017-06-08T16:50:01.584Z,76.60
2017-06-08T16:52:27.884Z,76.70
2017-06-08T16:54:54.172Z,77.90
2017-06-08T16:57:21.573Z,78.50
2017-06-08T16:59:47.878Z,78.40
2017-06-08T17:02:14.162Z,81.00
2017-06-08T17:04:40.884Z,82.10
2017-06-08T17:07:07.138Z,82.30
2017-06-08T17:09:34.195Z,85.60
2017-06-08T17:12:01.604Z,85.90
2017-06-08T17:14:27.908Z,85.80
2017-06-08T17:16:55.105Z,85.90
2017-06-08T17:19:22.512Z,87.90
2017-06-08T17:21:48.786Z,87.10
2017-06-08T17:24:15.076Z,86.70
2017-06-08T17:26:41.701Z,87.50
2017-06-08T17:29:07.980Z,87.90
2017-06-08T17:31:35.008Z,87.70
2017-06-08T17:34:01.731Z,87.70
2017-06-08T17:36:28.012Z,86.70
2017-06-08T17:38:55.019Z,88.20
2017-06-08T17:41:21.731Z,88.10
2017-06-08T17:43:48.067Z,87.70
2017-06-08T17:46:14.331Z,87.40
2017-06-08T17:48:41.702Z,89.70
2017-06-08T17:51:07.970Z,89.70
2017-06-08T17:53:34.236Z,90.00
2017-06-08T17:56:01.634Z,90.10
2017-06-08T17:58:27.949Z,90.00
2017-06-08T18:00:54.228Z,90.20
2017-06-08T18:03:21.169Z,90.10
2017-06-08T18:05:48.291Z,90.30
2017-06-08T18:08:14.592Z,90.20
2017-06-08T18:10:41.255Z,90.70
2017-06-08T18:13:07.538Z,88.50
2017-06-08T18:15:34.565Z,88.60
2017-06-08T18:18:01.993Z,89.90
2017-06-08T18:20:28.260Z,89.80
2017-06-08T18:22:55.248Z,90.60
2017-06-08T18:25:21.873Z,90.60
2017-06-08T18:27:48.145Z,90.40
2017-06-08T18:30:14.490Z,89.70
2017-06-08T18:32:41.850Z,90.20
2017-06-08T18:35:08.898Z,90.20
2017-06-08T18:37:35.185Z,90.10
2017-06-08T18:40:01.899Z,90.00
2017-06-08T18:42:28.208Z,89.90
2017-06-08T18:44:54.528Z,90.10
2017-06-08T18:47:21.208Z,90.40
2017-06-08T18:49:47.497Z,89.30
2017-06-08T18:52:13.783Z,89.60
2017-06-08T18:54:48.775Z,88.60
2017-06-08T18:57:15.091Z,89.20
2017-06-08T18:59:41.444Z,88.80
2017-06-08T19:02:08.081Z,88.70
2017-06-08T19:04:34.380Z,88.90
2017-06-08T19:07:00.653Z,90.00
2017-06-08T19:09:27.366Z,88.70
2017-06-08T19:11:53.695Z,88.60
2017-06-08T19:14:19.978Z,89.40
2017-06-08T19:16:46.664Z,89.40
2017-06-08T19:19:12.985Z,89.00
2017-06-08T19:21:39.271Z,87.70
2017-06-08T19:24:05.924Z,87.50
2017-06-08T19:26:35.465Z,87.90
2017-06-08T19:29:01.848Z,86.60
2017-06-08T19:31:28.509Z,86.30
2017-06-08T19:33:54.985Z,88.80
2017-06-08T19:36:21.269Z,86.60
2017-06-08T19:38:48.517Z,88.30
2017-06-08T19:41:14.809Z,87.20
2017-06-08T19:43:41.134Z,88.20
2017-06-08T19:46:07.803Z,87.10
2017-06-08T19:48:34.054Z,87.10
2017-06-08T19:51:00.345Z,88.10
2017-06-08T19:53:27.024Z,87.50
2017-06-08T19:55:53.316Z,87.50
2017-06-08T19:58:19.666Z,87.30
2017-06-08T20:00:46.718Z,87.30
2017-06-08T20:03:13.017Z,87.00
2017-06-08T20:05:39.374Z,87.70
2017-06-08T20:08:06.123Z,87.00
2017-06-08T20:10:32.436Z,87.40
2017-06-08T20:12:58.700Z,87.40
2017-06-08T20:15:26.108Z,88.70
2017-06-08T20:17:52.375Z,88.70
2017-06-08T20:20:18.648Z,88.00
2017-06-08T20:22:45.300Z,89.70
2017-06-08T20:25:11.599Z,88.50
2017-06-08T20:27:38.607Z,88.70
2017-06-08T20:30:05.240Z,88.60
2017-06-08T20:32:32.247Z,89.00
2017-06-08T20:34:58.508Z,89.00
2017-06-08T20:37:25.223Z,88.40
2017-06-08T20:39:51.462Z,89.80
2017-06-08T20:42:17.779Z,88.50
2017-06-08T20:44:44.420Z,89.00
2017-06-08T20:47:10.747Z,89.90
2017-06-08T20:49:37.026Z,88.80
2017-06-08T20:52:03.598Z,89.60
2017-06-08T20:54:29.944Z,89.10
2017-06-08T20:56:56.192Z,88.40
2017-06-08T20:59:22.901Z,88.50
2017-06-08T21:01:49.151Z,88.20
2017-06-08T21:04:15.424Z,87.70
2017-06-08T21:06:42.083Z,88.80
2017-06-08T21:09:08.333Z,89.20
2017-06-08T21:11:34.585Z,88.70
2017-06-08T21:14:01.192Z,88.30
2017-06-08T21:16:30.986Z,87.90
2017-06-08T21:18:58.152Z,88.30
2017-06-08T21:21:24.886Z,86.60
2017-06-08T21:23:51.163Z,87.00
2017-06-08T21:26:18.169Z,87.00
2017-06-08T21:28:44.997Z,86.40
2017-06-08T21:31:11.324Z,86.50
2017-06-08T21:33:37.579Z,86.70
2017-06-08T21:36:04.910Z,87.40
2017-06-08T21:38:31.157Z,86.70
2017-06-08T21:40:57.428Z,85.60
2017-06-08T21:43:24.073Z,85.80
2017-06-08T21:45:50.313Z,86.30
2017-06-08T21:48:16.588Z,87.10
2017-06-08T21:50:43.182Z,87.70
2017-06-08T21:53:09.464Z,87.10
2017-06-08T21:55:35.748Z,87.50
2017-06-08T21:58:02.489Z,87.90
2017-06-08T22:00:28.769Z,86.90
2017-06-08T22:02:55.761Z,86.20
2017-06-08T22:05:22.376Z,86.10
2017-06-08T22:07:48.660Z,87.00
2017-06-08T22:10:14.943Z,87.10
2017-06-08T22:12:41.580Z,85.90
2017-06-08T22:15:07.819Z,85.40
2017-06-08T22:17:34.084Z,85.20
2017-06-08T22:20:00.792Z,84.40
2017-06-08T22:22:27.028Z,84.60
2017-06-08T22:24:53.260Z,84.40
2017-06-08T22:27:19.884Z,84.30
2017-06-08T22:29:46.112Z,85.00
2017-06-08T22:32:12.375Z,84.90
2017-06-08T22:34:38.977Z,84.20
2017-06-08T22:37:05.241Z,85.70
2017-06-08T22:39:31.488Z,85.00
2017-06-08T22:41:58.801Z,86.10
2017-06-08T22:44:25.052Z,86.00
2017-06-08T22:46:51.308Z,85.40
2017-06-08T22:49:17.988Z,85.00
2017-06-08T22:51:44.263Z,85.70
2017-06-08T22:54:10.508Z,85.80
2017-06-08T22:56:37.896Z,85.20
2017-06-08T22:59:04.770Z,85.00
2017-06-08T23:01:31.066Z,85.40
2017-06-08T23:03:57.831Z,85.90
2017-06-08T23:06:24.099Z,86.70
2017-06-08T23:08:50.489Z,86.20
2017-06-08T23:11:17.132Z,85.90
2017-06-08T23:13:43.401Z,86.00
2017-06-08T23:16:10.413Z,87.10
2017-06-08T23:18:37.041Z,87.00
2017-06-08T23:21:03.288Z,86.20
2017-06-08T23:23:29.541Z,85.60
2017-06-08T23:25:56.944Z,88.60
2017-06-08T23:28:23.179Z,87.70
2017-06-08T23:30:49.436Z,88.90
2017-06-08T23:33:16.045Z,88.40
2017-06-08T23:35:42.281Z,88.20
2017-06-08T23:38:08.538Z,88.30
2017-06-08T23:40:35.254Z,88.80
2017-06-08T23:43:01.508Z,88.80
2017-06-08T23:45:27.728Z,88.70
2017-06-08T23:47:54.304Z,88.40
2017-06-08T23:50:21.304Z,87.20
2017-06-08T23:52:47.563Z,87.00
2017-06-08T23:55:14.267Z,87.90
2017-06-08T23:57:40.521Z,88.10
